TimeCST,TemperatureF,Dew PointF,Humidity,Sea Level PressureIn,VisibilityMPH,Wind Direction,Wind SpeedMPH,Gust SpeedMPH,PrecipitationIn,Events,Conditions,WindDirDegrees,DateUTC
12:58 AM,40.6,30.4,67,30.35,10.0,NE,5.8,-,N/A,,Clear,50,2013-02-02 06:58:00
1:58 AM,37.9,30.6,75,30.35,10.0,NE,5.8,-,N/A,,Clear,50,2013-02-02 07:58:00
2:58 AM,37.2,30.4,76,30.35,10.0,NE,3.5,-,N/A,,Clear,40,2013-02-02 08:58:00
3:58 AM,36.7,29.5,75,30.35,10.0,NE,4.6,-,N/A,,Clear,50,2013-02-02 09:58:00
4:58 AM,36.7,28.0,71,30.36,10.0,NE,8.1,-,N/A,,Clear,40,2013-02-02 10:58:00
5:58 AM,36.5,27.9,71,30.37,10.0,NE,6.9,-,N/A,,Clear,50,2013-02-02 11:58:00
6:58 AM,36.0,27.7,72,30.37,10.0,NE,5.8,-,N/A,,Clear,50,2013-02-02 12:58:00
7:58 AM,42.3,29.7,61,30.36,10.0,East,5.8,-,N/A,,Clear,80,2013-02-02 13:58:00
8:58 AM,48.2,30.7,51,30.36,10.0,East,5.8,-,N/A,,Clear,90,2013-02-02 14:58:00
9:58 AM,55.9,31.3,39,30.35,10.0,ESE,9.2,-,N/A,,Clear,120,2013-02-02 15:58:00
10:58 AM,57.7,40.3,52,30.33,10.0,SE,11.5,-,N/A,,Clear,140,2013-02-02 16:58:00
11:58 AM,59.0,46.4,63,30.30,10.0,SSE,12.7,-,N/A,,Clear,150,2013-02-02 17:58:00
12:58 PM,61.0,48.6,64,30.26,10.0,SE,11.5,-,N/A,,Clear,130,2013-02-02 18:58:00
1:58 PM,62.6,48.7,60,30.25,10.0,SSE,8.1,-,N/A,,Clear,160,2013-02-02 19:58:00
2:58 PM,63.3,50.2,62,30.24,10.0,South,9.2,-,N/A,,Clear,190,2013-02-02 20:58:00
3:58 PM,62.2,50.0,64,30.23,10.0,SSW,6.9,-,N/A,,Clear,200,2013-02-02 21:58:00
4:58 PM,60.3,50.9,71,30.21,10.0,SSW,5.8,-,N/A,,Clear,200,2013-02-02 22:58:00
5:58 PM,58.1,51.6,79,30.21,10.0,South,2.3,-,N/A,,Clear,180,2013-02-02 23:58:00
6:58 PM,54.9,51.3,88,30.22,10.0,Calm,Calm,-,N/A,,Clear,0,2013-02-03 00:58:00
7:58 PM,54.0,52.7,95,30.22,10.0,South,2.3,-,N/A,,Clear,170,2013-02-03 01:58:00
8:28 PM,53.6,51.8,94,30.22,5.0,Calm,Calm,-,N/A,,Clear,0,2013-02-03 02:28:00
8:33 PM,53.6,51.8,94,30.22,1.8,Calm,Calm,-,N/A,,Clear,0,2013-02-03 02:33:00
8:38 PM,53.6,51.8,94,30.22,2.0,Calm,Calm,-,N/A,,Clear,0,2013-02-03 02:38:00
8:43 PM,53.6,51.8,94,30.22,6.0,Calm,Calm,-,N/A,,Clear,0,2013-02-03 02:43:00
8:48 PM,53.6,51.8,94,30.22,4.0,South,1.2,-,N/A,,Clear,170,2013-02-03 02:48:00
8:53 PM,53.6,51.8,94,30.22,4.0,South,2.3,-,N/A,,Clear,170,2013-02-03 02:53:00
8:58 PM,53.2,51.6,94,30.22,10.0,South,2.3,-,N/A,,Clear,170,2013-02-03 02:58:00
9:58 PM,52.7,51.6,96,30.22,10.0,SW,2.3,-,N/A,,Clear,220,2013-02-03 03:58:00
10:58 PM,52.2,50.7,95,30.21,10.0,SW,6.9,-,N/A,,Mostly Cloudy,220,2013-02-03 04:58:00
11:58 PM,56.8,53.2,88,30.21,10.0,WSW,6.9,-,N/A,,Scattered Clouds,250,2013-02-03 05:58:00